Time;durP1;ratioP1;P1;durP2;ratioP2;P2;SDS_P1;SDS_P2;PMS_P1;PMS_P2;Temp;Humidity;BMP_temperature;BMP_pressure;BME280_temperature;BME280_humidity;BME280_pressure;Samples;Min_cycle;Max_cycle;Signal;HPM_P1;HPM_P2
2022/03/20 00:00:37;;;;;;;22.60;16.50;;;6.50;13.20;;;;;;2610234;54;20417;-77
2022/03/20 00:03:09;;;;;;;28.43;19.43;;;6.50;13.70;;;;;;2609275;47;20190;-77
2022/03/20 00:05:38;;;;;;;29.27;19.47;;;6.50;13.60;;;;;;2610999;39;20867;-78
2022/03/20 00:08:11;;;;;;;30.30;19.30;;;6.20;23.20;;;;;;2611322;54;20443;-78
2022/03/20 00:10:38;;;;;;;24.90;18.60;;;6.40;14.40;;;;;;2610525;47;20423;-78
2022/03/20 00:13:13;;;;;;;23.90;17.17;;;6.40;14.50;;;;;;2612558;39;20765;-77
2022/03/20 00:15:40;;;;;;;28.27;19.60;;;6.30;18.90;;;;;;2611180;54;20412;-78
2022/03/20 00:18:10;;;;;;;23.90;19.87;;;6.30;15.20;;;;;;2612752;54;20399;-77
2022/03/20 00:20:38;;;;;;;25.67;19.40;;;6.20;15.50;;;;;;2612584;54;20998;-78
2022/03/20 00:23:06;;;;;;;26.40;19.70;;;6.20;15.40;;;;;;2613278;54;20426;-78
2022/03/20 00:25:38;;;;;;;30.27;18.77;;;6.00;21.10;;;;;;2610079;54;20900;-77
2022/03/20 00:28:05;;;;;;;27.40;19.83;;;6.20;15.00;;;;;;2609984;47;20416;-77
2022/03/20 00:30:32;;;;;;;24.00;19.37;;;6.00;15.20;;;;;;2611145;54;20441;-78
2022/03/20 00:32:58;;;;;;;30.93;18.97;;;6.30;15.70;;;;;;2610941;54;20412;-78
2022/03/20 00:35:25;;;;;;;24.60;20.00;;;4.50;14.40;;;;;;2612103;46;20431;-78
2022/03/20 00:37:50;;;;;;;36.50;19.83;;;6.00;13.90;;;;;;2612888;54;20404;-78
2022/03/20 00:40:17;;;;;;;25.07;19.47;;;6.00;13.60;;;;;;2612669;51;20424;-76
2022/03/20 00:42:43;;;;;;;24.90;18.90;;;6.00;13.10;;;;;;2611364;47;20431;-77
2022/03/20 00:45:09;;;;;;;28.97;18.43;;;;;;;;;;2611776;54;20391;-77
2022/03/20 00:47:35;;;;;;;27.97;19.87;;;5.40;16.80;;;;;;2610285;54;20191;-79
2022/03/20 00:50:01;;;;;;;21.93;17.87;;;6.20;23.70;;;;;;2609759;39;20856;-77
2022/03/20 00:52:27;;;;;;;22.77;17.97;;;7.00;17.20;;;;;;2610918;54;20169;-77
2022/03/20 00:54:53;;;;;;;26.77;18.50;;;;;;;;;;2612657;54;20647;-77
2022/03/20 00:57:20;;;;;;;22.30;18.80;;;5.90;17.40;;;;;;2610706;54;20983;-78
2022/03/20 00:59:46;;;;;;;26.80;16.40;;;;;;;;;;2612078;54;20408;-78
2022/03/20 01:02:12;;;;;;;26.87;19.67;;;5.90;18.20;;;;;;2610874;47;20511;-78
2022/03/20 01:04:38;;;;;;;29.43;17.30;;;5.50;21.90;;;;;;2609817;39;20824;-77
2022/03/20 01:07:04;;;;;;;27.00;20.23;;;5.80;11.10;;;;;;2608077;54;20182;-78
2022/03/20 01:09:31;;;;;;;29.47;19.20;;;5.30;18.30;;;;;;2610768;54;20411;-77
2022/03/20 01:11:58;;;;;;;28.77;21.00;;;5.80;11.30;;;;;;2610599;39;20810;-78
2022/03/20 01:14:25;;;;;;;28.47;20.00;;;5.70;11.90;;;;;;2610742;47;20424;-78
2022/03/20 01:16:55;;;;;;;24.20;19.27;;;5.80;13.70;;;;;;2609798;47;21594;-77
2022/03/20 01:19:22;;;;;;;25.23;18.07;;;5.80;10.60;;;;;;2610876;54;20396;-77
2022/03/20 01:21:48;;;;;;;27.23;20.20;;;5.70;10.10;;;;;;2612509;54;20968;-78
2022/03/20 01:24:14;;;;;;;29.97;19.53;;;5.80;13.70;;;;;;2610857;54;20433;-78
2022/03/20 01:26:40;;;;;;;30.73;19.73;;;5.60;10.40;;;;;;2612556;54;20404;-78
2022/03/20 01:29:06;;;;;;;26.73;18.30;;;5.60;10.90;;;;;;2610588;47;20450;-78
2022/03/20 01:31:36;;;;;;;26.80;16.93;;;5.50;10.50;;;;;;2609667;47;20715;-77
2022/03/20 01:34:03;;;;;;;29.47;20.10;;;5.50;11.30;;;;;;2610429;47;21035;-78
2022/03/20 01:36:29;;;;;;;31.13;20.47;;;5.50;17.00;;;;;;2611449;51;20424;-77
2022/03/20 01:38:56;;;;;;;33.07;19.63;;;5.40;11.20;;;;;;2610974;54;20544;-77
2022/03/20 01:41:23;;;;;;;24.77;16.93;;;5.20;24.30;;;;;;2610998;47;20421;-77
2022/03/20 01:44:03;;;;;;;37.53;20.00;;;5.30;11.90;;;;;;2611015;54;20506;-78
2022/03/20 01:46:31;;;;;;;30.93;18.83;;;5.40;12.50;;;;;;2610932;47;20423;-78
2022/03/20 01:48:58;;;;;;;35.90;20.60;;;5.30;12.50;;;;;;2609684;47;20426;-77
2022/03/20 01:52:10;;;;;;;24.07;17.67;;;5.30;11.80;;;;;;2611150;54;20423;-78
2022/03/20 01:54:14;;;;;;;28.13;18.47;;;5.30;12.20;;;;;;2610517;47;21204;-78
2022/03/20 01:56:51;;;;;;;27.17;18.50;;;5.10;13.80;;;;;;2611975;39;20842;-77
2022/03/20 01:59:18;;;;;;;20.77;17.67;;;5.30;11.90;;;;;;2612631;54;20436;-78
2022/03/20 02:01:44;;;;;;;28.13;19.50;;;5.30;12.30;;;;;;2609196;47;20448;-78
2022/03/20 02:04:14;;;;;;;19.33;15.73;;;5.00;13.30;;;;;;2609987;54;20924;-78
2022/03/20 02:06:41;;;;;;;30.90;18.10;;;5.30;11.60;;;;;;2610626;47;20932;-78
2022/03/20 02:09:07;;;;;;;29.00;18.10;;;5.30;20.50;;;;;;2610026;46;20979;-78
2022/03/20 02:11:34;;;;;;;29.67;20.17;;;5.30;11.60;;;;;;2609963;54;21201;-78
2022/03/20 02:14:00;;;;;;;24.00;17.67;;;5.30;11.30;;;;;;2610947;47;20439;-79
2022/03/20 02:16:26;;;;;;;28.10;20.13;;;5.40;10.40;;;;;;2611756;54;20394;-78
2022/03/20 02:18:54;;;;;;;29.10;18.93;;;5.40;10.40;;;;;;2611423;54;21161;-77
2022/03/20 02:21:46;;;;;;;22.67;17.37;;;5.50;9.40;;;;;;2608647;47;20431;-78
2022/03/20 02:24:32;;;;;;;23.57;18.40;;;5.50;8.90;;;;;;2610984;54;20942;-77
2022/03/20 02:27:04;;;;;;;27.17;17.57;;;5.50;9.30;;;;;;2611904;47;20539;-76
2022/03/20 02:29:30;;;;;;;25.30;18.50;;;5.50;9.10;;;;;;2612627;54;20443;-78
2022/03/20 02:31:58;;;;;;;25.20;19.50;;;5.50;8.50;;;;;;2612113;31;20911;-77
2022/03/20 02:34:30;;;;;;;27.30;19.13;;;5.50;8.70;;;;;;2611240;54;20463;-78
2022/03/20 02:36:57;;;;;;;31.17;21.13;;;5.60;10.30;;;;;;2612656;54;20442;-77
2022/03/20 02:39:24;;;;;;;29.17;19.77;;;5.50;7.50;;;;;;2611432;47;20936;-77
2022/03/20 02:41:54;;;;;;;22.10;17.50;;;5.60;8.90;;;;;;2609774;31;20837;-77
2022/03/20 02:44:41;;;;;;;27.33;19.90;;;5.50;6.40;;;;;;2611301;47;20443;-78
2022/03/20 02:47:07;;;;;;;25.57;18.23;;;5.50;6.80;;;;;;2612870;47;20427;-77
2022/03/20 02:49:37;;;;;;;29.23;18.40;;;5.40;6.30;;;;;;2611843;47;20438;-77
2022/03/20 02:52:03;;;;;;;27.40;17.97;;;5.50;4.30;;;;;;2612210;47;20430;-76
2022/03/20 02:54:29;;;;;;;27.33;18.90;;;5.60;4.90;;;;;;2612676;54;20463;-78
2022/03/20 02:56:55;;;;;;;31.50;21.70;;;5.60;5.00;;;;;;2611741;47;20420;-77
2022/03/20 02:59:22;;;;;;;21.63;16.17;;;5.60;3.70;;;;;;2613344;47;21005;-78
2022/03/20 03:01:48;;;;;;;24.47;17.80;;;5.40;4.20;;;;;;2611983;54;20474;-76
2022/03/20 03:04:13;;;;;;;24.70;16.87;;;5.60;3.50;;;;;;2612309;54;20520;-78
2022/03/20 03:06:39;;;;;;;19.97;17.27;;;5.60;3.00;;;;;;2612419;54;20408;-77
2022/03/20 03:11:49;;;;;;;24.63;16.70;;;5.60;2.60;;;;;;2609769;54;20154;-77
2022/03/20 03:16:59;;;;;;;16.33;13.53;;;5.60;1.60;;;;;;2611513;47;20689;-80
2022/03/20 03:19:25;;;;;;;29.77;19.17;;;5.70;5.00;;;;;;2609969;39;20830;-77
2022/03/20 03:21:51;;;;;;;23.37;16.83;;;5.50;1.40;;;;;;2608595;47;20242;-77
2022/03/20 03:24:17;;;;;;;26.10;18.30;;;5.50;2.20;;;;;;2610088;47;20189;-79
2022/03/20 03:26:43;;;;;;;29.47;20.83;;;5.50;1.20;;;;;;2611624;39;20501;-77
2022/03/20 03:29:09;;;;;;;16.50;12.67;;;5.60;3.30;;;;;;2610741;47;20479;-77
2022/03/20 03:31:35;;;;;;;23.80;18.50;;;5.50;8.70;;;;;;2610831;47;20955;-79
2022/03/20 03:36:45;;;;;;;19.33;15.93;;;5.50;1.10;;;;;;2611586;47;20181;-77
2022/03/20 03:39:11;;;;;;;21.43;16.10;;;5.50;1.40;;;;;;2611996;47;20411;-77
2022/03/20 03:41:37;;;;;;;23.63;18.07;;;5.50;1.00;;;;;;2609963;54;20155;-78
2022/03/20 03:44:03;;;;;;;27.77;18.90;;;5.50;1.00;;;;;;2610556;31;20809;-78
2022/03/20 03:46:29;;;;;;;29.53;19.10;;;5.50;1.00;;;;;;2611284;54;20170;-79
2022/03/20 03:48:56;;;;;;;20.47;16.80;;;5.50;8.80;;;;;;2612921;54;20399;-77
2022/03/20 03:51:22;;;;;;;30.03;19.77;;;5.50;1.00;;;;;;2611329;47;20999;-77
2022/03/20 03:53:48;;;;;;;19.13;13.50;;;;;;;;;;2612067;54;20166;-77
2022/03/20 03:56:14;;;;;;;24.83;19.10;;;5.50;1.00;;;;;;2609599;47;20170;-78
2022/03/20 03:58:39;;;;;;;25.77;18.10;;;5.50;1.00;;;;;;2610641;39;20878;-77
2022/03/20 04:01:06;;;;;;;25.93;17.90;;;5.50;1.00;;;;;;2610439;54;20190;-77
2022/03/20 04:03:33;;;;;;;35.23;19.27;;;5.50;1.00;;;;;;2611117;47;20223;-78
2022/03/20 04:06:04;;;;;;;28.10;19.40;;;5.50;1.00;;;;;;2612113;54;20415;-77
2022/03/20 04:08:32;;;;;;;25.27;17.50;;;5.50;1.00;;;;;;2610558;47;20419;-78
2022/03/20 04:10:58;;;;;;;20.40;16.43;;;5.50;1.00;;;;;;2609868;54;20460;-77
2022/03/20 04:13:24;;;;;;;26.40;17.97;;;;;;;;;;2611956;54;21378;-78
2022/03/20 04:15:50;;;;;;;28.70;19.03;;;5.50;1.00;;;;;;2611862;47;20426;-78
2022/03/20 04:18:16;;;;;;;26.80;15.77;;;;;;;;;;2611965;39;20470;-77
2022/03/20 04:20:44;;;;;;;26.77;18.67;;;5.50;1.00;;;;;;2611146;39;20537;-77
2022/03/20 04:25:54;;;;;;;20.37;16.10;;;5.50;1.00;;;;;;2610568;39;20783;-77
2022/03/20 04:28:21;;;;;;;26.83;19.03;;;5.40;1.00;;;;;;2612848;39;20878;-79
2022/03/20 04:30:50;;;;;;;27.00;18.50;;;;;;;;;;2611408;54;20531;-77
2022/03/20 04:33:16;;;;;;;29.93;19.60;;;5.40;1.00;;;;;;2612182;47;20419;-79
2022/03/20 04:35:44;;;;;;;27.13;17.93;;;;;;;;;;2610141;54;20406;-78
2022/03/20 04:38:09;;;;;;;21.20;17.97;;;5.30;3.10;;;;;;2611657;54;20182;-77
2022/03/20 04:40:35;;;;;;;20.00;16.23;;;5.40;1.00;;;;;;2609768;54;20427;-79
2022/03/20 04:43:01;;;;;;;23.10;17.10;;;5.40;1.00;;;;;;2611745;54;20162;-78
2022/03/20 04:45:27;;;;;;;27.27;20.00;;;5.40;1.00;;;;;;2609584;54;20151;-78
2022/03/20 04:58:56;;;;;;;26.87;18.33;;;5.10;4.10;;;;;;2612245;54;20404;-78
2022/03/20 05:01:22;;;;;;;25.20;19.07;;;;;;;;;;2610106;47;20424;-78
2022/03/20 05:03:48;;;;;;;26.90;17.53;;;5.30;1.00;;;;;;2609314;54;20690;-79
2022/03/20 05:06:14;;;;;;;25.33;17.67;;;5.10;1.00;;;;;;2612709;46;20435;-78
2022/03/20 05:08:40;;;;;;;25.07;15.90;;;;;;;;;;2611196;47;20194;-78
2022/03/20 05:13:50;;;;;;;27.47;19.20;;;5.00;1.00;;;;;;2611062;47;20427;-78
2022/03/20 05:16:17;;;;;;;24.03;18.60;;;4.90;1.00;;;;;;2609997;47;20458;-78
2022/03/20 05:18:44;;;;;;;21.40;16.50;;;4.40;1.00;;;;;;2610524;47;20420;-78
2022/03/20 05:21:10;;;;;;;29.57;17.00;;;4.50;5.20;;;;;;2609981;47;20411;-78
2022/03/20 05:23:36;;;;;;;25.80;17.77;;;4.70;1.00;;;;;;2610791;47;20470;-78
2022/03/20 05:26:02;;;;;;;26.97;16.70;;;4.60;1.00;;;;;;2610650;54;20549;-79
2022/03/20 05:28:28;;;;;;;34.00;17.83;;;4.60;1.00;;;;;;2610855;54;20398;-78
2022/03/20 05:30:55;;;;;;;17.13;13.93;;;;;;;;;;2610251;54;20442;-78
2022/03/20 05:33:22;;;;;;;18.90;13.27;;;4.50;1.60;;;;;;2611471;47;20931;-78
2022/03/20 05:35:47;;;;;;;22.40;16.40;;;4.30;7.40;;;;;;2612084;47;20983;-78
2022/03/20 05:38:14;;;;;;;22.20;16.33;;;4.40;1.00;;;;;;2611964;54;20459;-79
2022/03/20 05:40:42;;;;;;;32.87;17.60;;;4.40;1.00;;;;;;2611843;54;20159;-77
2022/03/20 05:43:08;;;;;;;20.00;16.13;;;;;;;;;;2610145;54;20407;-78
2022/03/20 05:45:37;;;;;;;28.60;17.10;;;4.50;3.50;;;;;;2611905;54;20422;-78
2022/03/20 05:48:03;;;;;;;17.03;12.83;;;4.20;3.00;;;;;;2610297;54;21224;-78
2022/03/20 05:50:29;;;;;;;18.80;15.40;;;3.70;19.00;;;;;;2610258;54;20422;-78
2022/03/20 05:52:55;;;;;;;23.77;15.50;;;4.40;1.00;;;;;;2610601;39;21148;-78
2022/03/20 05:58:01;;;;;;;24.27;17.20;;;;;;;;;;2610961;47;20282;-78
2022/03/20 05:58:11;;;;;;;21.17;15.17;;;4.40;1.10;;;;;;2611668;39;20539;-78
2022/03/20 06:00:41;;;;;;;28.00;19.47;;;4.40;1.00;;;;;;2609802;47;20428;-78
2022/03/20 06:03:09;;;;;;;21.20;16.60;;;4.50;1.00;;;;;;2611932;54;20995;-78
2022/03/20 06:05:35;;;;;;;22.03;18.33;;;4.40;1.00;;;;;;2611405;51;20423;-77
2022/03/20 06:08:00;;;;;;;20.10;15.13;;;4.40;1.00;;;;;;2611364;54;20951;-79
2022/03/20 06:10:26;;;;;;;28.03;18.70;;;4.40;1.00;;;;;;2610596;54;20523;-79
2022/03/20 06:12:52;;;;;;;26.30;16.10;;;4.40;1.00;;;;;;2611149;54;20415;-78
2022/03/20 06:15:18;;;;;;;20.67;15.93;;;4.50;1.00;;;;;;2611371;47;20170;-79
2022/03/20 06:17:45;;;;;;;24.10;16.83;;;4.50;1.00;;;;;;2611831;39;20567;-79
2022/03/20 06:20:13;;;;;;;23.47;17.67;;;4.60;1.00;;;;;;2610987;54;20404;-78
2022/03/20 06:22:39;;;;;;;23.63;16.87;;;4.70;1.00;;;;;;2611020;47;20412;-78
2022/03/20 06:25:08;;;;;;;26.23;17.20;;;4.70;1.00;;;;;;2610866;39;20849;-78
2022/03/20 06:27:45;;;;;;;20.20;16.80;;;4.70;1.00;;;;;;2611211;47;20166;-77
2022/03/20 06:30:13;;;;;;;22.93;16.60;;;4.80;1.00;;;;;;2612311;54;20422;-77
2022/03/20 06:32:40;;;;;;;24.93;17.80;;;5.00;1.00;;;;;;2612219;39;20843;-81
2022/03/20 06:35:06;;;;;;;27.40;17.40;;;5.20;1.00;;;;;;2609725;54;20456;-78
2022/03/20 06:37:42;;;;;;;21.00;17.37;;;5.30;1.00;;;;;;2610908;47;20462;-77
2022/03/20 06:40:09;;;;;;;23.90;16.67;;;5.60;1.00;;;;;;2610525;54;20404;-81
2022/03/20 06:42:36;;;;;;;21.63;16.20;;;5.60;1.00;;;;;;2610779;39;20853;-78
2022/03/20 06:45:04;;;;;;;21.00;17.93;;;5.80;1.00;;;;;;2610104;47;20937;-78
2022/03/20 06:47:33;;;;;;;26.63;17.67;;;6.00;1.00;;;;;;2608966;47;21125;-77
2022/03/20 06:50:00;;;;;;;29.17;17.80;;;6.00;1.00;;;;;;2609734;39;20812;-79
2022/03/20 06:52:30;;;;;;;25.73;18.20;;;6.10;1.00;;;;;;2609172;47;20484;-78
2022/03/20 06:54:58;;;;;;;26.13;17.50;;;6.00;1.00;;;;;;2609360;54;20495;-77
2022/03/20 06:57:25;;;;;;;23.83;17.40;;;6.10;1.00;;;;;;2611577;54;20935;-79
2022/03/20 06:59:53;;;;;;;25.33;18.80;;;6.30;1.00;;;;;;2610020;47;20423;-78
2022/03/20 07:02:19;;;;;;;24.00;16.60;;;6.30;1.00;;;;;;2609791;39;20697;-79
2022/03/20 07:04:47;;;;;;;22.80;16.83;;;6.60;1.00;;;;;;2608448;46;20430;-79
2022/03/20 07:07:16;;;;;;;25.80;19.03;;;6.60;1.00;;;;;;2609457;47;20440;-77
2022/03/20 07:09:43;;;;;;;29.50;18.57;;;6.80;1.00;;;;;;2609854;54;21122;-78
2022/03/20 07:12:10;;;;;;;20.27;16.70;;;6.80;1.00;;;;;;2609397;39;20573;-77
2022/03/20 07:14:36;;;;;;;23.20;17.80;;;6.90;1.00;;;;;;2609017;47;20424;-77
2022/03/20 07:17:04;;;;;;;22.10;17.50;;;7.60;1.00;;;;;;2608175;47;20412;-77
2022/03/20 07:19:31;;;;;;;21.33;19.07;;;7.20;1.00;;;;;;2609570;39;20806;-77
2022/03/20 07:21:57;;;;;;;27.70;18.93;;;7.30;1.00;;;;;;2609775;47;20425;-79
2022/03/20 07:24:23;;;;;;;22.43;18.33;;;7.50;1.00;;;;;;2610280;54;20958;-78
2022/03/20 07:29:34;;;;;;;25.03;20.17;;;7.90;1.00;;;;;;2609432;47;20451;-79
2022/03/20 07:32:04;;;;;;;22.33;19.30;;;8.10;1.00;;;;;;2610555;54;20440;-78
2022/03/20 07:34:30;;;;;;;22.00;18.17;;;8.20;1.00;;;;;;2609948;54;20439;-79
2022/03/20 07:36:58;;;;;;;24.43;18.97;;;8.10;1.00;;;;;;2609617;54;20890;-77
2022/03/20 07:39:24;;;;;;;21.97;19.20;;;8.10;1.00;;;;;;2610379;54;20503;-77
2022/03/20 07:41:50;;;;;;;23.23;18.60;;;8.20;1.00;;;;;;2608806;54;20419;-78
2022/03/20 07:44:24;;;;;;;24.73;18.40;;;8.30;1.00;;;;;;2610336;54;20445;-78
2022/03/20 07:46:52;;;;;;;24.73;19.43;;;8.20;1.00;;;;;;2610549;54;20420;-78
2022/03/20 07:49:20;;;;;;;19.33;16.17;;;8.40;1.00;;;;;;2609027;54;20441;-78
2022/03/20 07:51:46;;;;;;;23.93;19.57;;;8.70;1.00;;;;;;2610383;39;20532;-77
2022/03/20 07:54:16;;;;;;;23.47;18.50;;;8.70;1.00;;;;;;2609385;54;20408;-77
2022/03/20 07:56:42;;;;;;;23.53;18.00;;;9.00;1.00;;;;;;2610331;47;20430;-77
2022/03/20 07:59:09;;;;;;;23.17;19.30;;;9.00;1.00;;;;;;2611637;39;20873;-78
2022/03/20 08:01:39;;;;;;;32.67;21.47;;;9.10;1.00;;;;;;2610558;47;20433;-79
2022/03/20 08:04:05;;;;;;;23.60;20.40;;;9.10;1.00;;;;;;2610456;47;20435;-78
2022/03/20 08:06:31;;;;;;;26.23;20.77;;;9.30;1.00;;;;;;2610781;39;21942;-79
2022/03/20 08:08:59;;;;;;;24.57;19.67;;;9.40;1.00;;;;;;2610203;54;20400;-78
2022/03/20 08:11:27;;;;;;;22.60;17.47;;;9.50;1.00;;;;;;2611268;39;20826;-78
2022/03/20 08:13:53;;;;;;;30.57;22.17;;;9.50;1.00;;;;;;2609426;54;20547;-77
2022/03/20 08:16:21;;;;;;;22.73;19.50;;;9.60;1.00;;;;;;2610316;47;20982;-78
2022/03/20 08:18:48;;;;;;;24.50;20.90;;;9.80;1.00;;;;;;2609542;54;20402;-78
2022/03/20 08:21:15;;;;;;;24.13;19.87;;;9.70;1.00;;;;;;2609754;51;20436;-78
2022/03/20 08:23:41;;;;;;;22.10;18.43;;;10.00;1.00;;;;;;2610479;54;20405;-77
2022/03/20 08:26:09;;;;;;;25.07;20.23;;;10.00;1.00;;;;;;2610930;54;20414;-78
2022/03/20 08:28:37;;;;;;;25.93;19.73;;;10.00;1.00;;;;;;2609119;47;20418;-77
2022/03/20 08:31:03;;;;;;;24.40;20.27;;;10.10;1.00;;;;;;2610469;47;20441;-79
2022/03/20 08:33:30;;;;;;;26.97;20.50;;;;;;;;;;2610196;54;20440;-75
2022/03/20 08:35:57;;;;;;;26.13;18.90;;;;;;;;;;2612066;54;20946;-78
2022/03/20 08:38:23;;;;;;;23.10;17.43;;;;;;;;;;2613061;54;20509;-78
2022/03/20 08:40:49;;;;;;;24.50;19.27;;;9.50;1.00;;;;;;2612503;54;20464;-79
2022/03/20 08:43:17;;;;;;;24.07;17.90;;;10.20;1.00;;;;;;2612430;54;20389;-78
2022/03/20 08:45:44;;;;;;;24.23;20.23;;;;;;;;;;2612107;54;20167;-78
2022/03/20 08:48:11;;;;;;;25.13;21.07;;;10.30;1.00;;;;;;2612971;47;20425;-77
2022/03/20 08:50:37;;;;;;;27.83;20.37;;;;;;;;;;2612633;54;20952;-77
2022/03/20 08:53:04;;;;;;;26.90;20.50;;;10.30;2.40;;;;;;2612319;54;20425;-78
2022/03/20 08:55:33;;;;;;;25.57;20.77;;;10.10;1.00;;;;;;2612352;49;20394;-78
2022/03/20 08:57:59;;;;;;;26.40;22.00;;;10.30;1.00;;;;;;2612595;54;20494;-78
2022/03/20 09:00:26;;;;;;;24.47;21.80;;;10.20;1.00;;;;;;2613133;54;20367;-78
2022/03/20 09:02:53;;;;;;;27.60;20.77;;;9.80;1.00;;;;;;2612043;47;20441;-77
2022/03/20 09:05:20;;;;;;;29.00;22.40;;;9.50;1.00;;;;;;2613393;54;20386;-77
2022/03/20 09:07:48;;;;;;;29.97;21.73;;;9.60;1.00;;;;;;2612896;54;20382;-78
2022/03/20 09:10:15;;;;;;;32.27;23.80;;;9.40;1.00;;;;;;2612047;54;20420;-77
2022/03/20 09:12:45;;;;;;;28.63;21.07;;;9.30;1.00;;;;;;2610944;47;20431;-77
2022/03/20 09:15:16;;;;;;;23.40;19.10;;;9.50;1.00;;;;;;2611911;39;20787;-78
2022/03/20 09:20:28;;;;;;;26.43;21.77;;;9.90;1.00;;;;;;2611873;46;20432;-77
2022/03/20 09:22:54;;;;;;;31.67;22.57;;;10.40;1.00;;;;;;2611151;47;20427;-78
2022/03/20 09:25:20;;;;;;;28.30;23.10;;;10.90;1.00;;;;;;2610281;47;20435;-78
2022/03/20 09:27:49;;;;;;;26.33;23.13;;;10.90;1.00;;;;;;2611874;54;20430;-78
2022/03/20 09:30:19;;;;;;;29.40;23.47;;;11.00;1.00;;;;;;2610922;54;20421;-77
2022/03/20 09:32:45;;;;;;;30.23;22.70;;;10.80;1.00;;;;;;2610666;46;20414;-78
2022/03/20 09:35:12;;;;;;;30.17;23.30;;;10.60;1.00;;;;;;2611858;54;20435;-78
2022/03/20 09:37:38;;;;;;;28.73;23.30;;;10.40;1.00;;;;;;2615455;47;21253;-81
2022/03/20 09:40:13;;;;;;;32.70;24.00;;;10.40;1.00;;;;;;2616299;47;20423;-79
2022/03/20 09:42:42;;;;;;;25.53;21.90;;;10.40;1.00;;;;;;2615863;47;20428;-79
2022/03/20 09:45:12;;;;;;;28.40;23.73;;;10.40;1.00;;;;;;2615081;54;20499;-78
2022/03/20 09:47:41;;;;;;;30.40;24.70;;;10.30;1.00;;;;;;2615422;54;20414;-78
2022/03/20 09:50:09;;;;;;;30.00;22.27;;;10.30;1.00;;;;;;2614338;54;20418;-78
2022/03/20 09:52:36;;;;;;;34.43;26.03;;;10.10;1.00;;;;;;2610696;54;20445;-78
2022/03/20 09:55:03;;;;;;;33.97;25.23;;;9.90;1.00;;;;;;2611062;47;20429;-78
2022/03/20 09:57:30;;;;;;;32.33;25.07;;;9.80;1.00;;;;;;2610859;54;20458;-79
2022/03/20 10:00:04;;;;;;;26.47;22.40;;;10.20;1.00;;;;;;2611214;54;20414;-78
2022/03/20 10:02:31;;;;;;;33.10;24.47;;;10.30;1.00;;;;;;2611196;54;20470;-78
2022/03/20 10:05:05;;;;;;;29.40;22.90;;;10.40;1.00;;;;;;2610872;54;20417;-77
2022/03/20 10:07:35;;;;;;;30.57;23.93;;;10.70;1.00;;;;;;2611554;39;20782;-78
2022/03/20 10:10:06;;;;;;;30.60;22.77;;;11.60;1.00;;;;;;2611687;54;20527;-77
2022/03/20 10:12:38;;;;;;;26.60;23.67;;;12.10;1.00;;;;;;2611034;47;20435;-79
2022/03/20 10:15:09;;;;;;;28.50;24.37;;;12.10;1.00;;;;;;2611404;47;20475;-77
2022/03/20 10:17:37;;;;;;;30.30;25.50;;;12.40;1.00;;;;;;2611817;54;20412;-78
2022/03/20 10:20:16;;;;;;;28.70;24.10;;;12.80;1.00;;;;;;2611106;51;20523;-77
2022/03/20 10:22:42;;;;;;;28.80;24.57;;;12.90;1.00;;;;;;2610995;47;20505;-79
2022/03/20 10:25:12;;;;;;;29.37;23.53;;;13.00;1.00;;;;;;2611187;54;20956;-77
2022/03/20 10:27:39;;;;;;;28.20;24.70;;;12.90;1.00;;;;;;2610971;54;20392;-78
2022/03/20 10:30:09;;;;;;;30.47;24.83;;;12.80;1.00;;;;;;2612342;47;20837;-78
2022/03/20 10:32:36;;;;;;;30.87;26.20;;;13.10;1.00;;;;;;2612571;47;20885;-77
2022/03/20 10:35:10;;;;;;;32.40;25.13;;;13.00;1.00;;;;;;2614169;31;20864;-78
2022/03/20 10:37:49;;;;;;;27.93;24.90;;;12.70;1.00;;;;;;2613322;39;20772;-80
2022/03/20 10:40:18;;;;;;;32.97;26.73;;;12.60;1.00;;;;;;2613173;39;20663;-78
2022/03/20 10:43:09;;;;;;;36.53;25.20;;;12.70;1.00;;;;;;2616095;39;20636;-79
2022/03/20 10:46:05;;;;;;;33.63;25.90;;;12.80;1.00;;;;;;2612561;47;20407;-81
2022/03/20 10:48:41;;;;;;;31.90;27.30;;;13.00;1.00;;;;;;2611643;54;20465;-80
2022/03/20 10:51:08;;;;;;;33.83;24.67;;;12.90;1.00;;;;;;2612015;54;20769;-76
2022/03/20 10:53:35;;;;;;;30.87;24.20;;;12.70;1.00;;;;;;2611786;47;20430;-78
2022/03/20 10:56:06;;;;;;;30.63;25.07;;;12.80;1.00;;;;;;2611690;47;20424;-80
2022/03/20 10:58:37;;;;;;;30.83;24.83;;;12.90;1.00;;;;;;2611839;54;20404;-79
2022/03/20 11:01:04;;;;;;;34.27;26.17;;;12.90;1.00;;;;;;2613608;54;20443;-77
2022/03/20 11:03:33;;;;;;;38.00;26.83;;;12.70;1.00;;;;;;2611309;54;20451;-77
2022/03/20 11:06:00;;;;;;;29.40;24.60;;;12.80;1.00;;;;;;2613044;54;20411;-81
2022/03/20 11:08:26;;;;;;;33.47;27.17;;;13.10;1.00;;;;;;2616159;54;20447;-78
2022/03/20 11:10:55;;;;;;;32.77;26.63;;;13.30;1.00;;;;;;2616770;39;20854;-78
2022/03/20 11:13:23;;;;;;;31.83;28.40;;;13.40;1.00;;;;;;2614838;47;20440;-78
2022/03/20 11:15:49;;;;;;;31.10;25.87;;;13.60;1.00;;;;;;2616408;46;21326;-77
2022/03/20 11:18:15;;;;;;;33.23;26.30;;;;;;;;;;2612001;54;20407;-76
2022/03/20 11:20:46;;;;;;;39.37;28.50;;;13.80;1.00;;;;;;2615759;47;20519;-77
2022/03/20 11:23:17;;;;;;;34.07;26.53;;;14.00;1.00;;;;;;2616279;54;20419;-78
2022/03/20 11:25:45;;;;;;;38.40;26.53;;;14.20;1.00;;;;;;2615703;47;20419;-79
2022/03/20 11:28:13;;;;;;;33.37;26.90;;;13.80;1.00;;;;;;2615474;39;20804;-77
2022/03/20 11:30:39;;;;;;;39.17;26.13;;;13.90;1.00;;;;;;2611558;54;20976;-77
2022/03/20 11:33:09;;;;;;;37.87;26.93;;;13.70;1.00;;;;;;2610836;54;20418;-77
2022/03/20 11:35:36;;;;;;;34.60;27.30;;;13.50;1.00;;;;;;2611343;54;20436;-78
2022/03/20 11:38:22;;;;;;;24.47;21.73;;;13.50;1.00;;;;;;2610255;54;20986;-78
2022/03/20 11:41:09;;;;;;;35.40;27.60;;;13.40;1.00;;;;;;2611516;31;21142;-77
2022/03/20 11:43:44;;;;;;;38.10;26.50;;;13.10;1.00;;;;;;2610261;47;20427;-78
2022/03/20 11:46:11;;;;;;;35.57;27.30;;;;;;;;;;2610296;47;20430;-77
2022/03/20 11:48:36;;;;;;;35.10;28.00;;;13.00;1.00;;;;;;2610865;54;20422;-77
2022/03/20 11:51:02;;;;;;;39.00;26.80;;;13.10;1.00;;;;;;2610589;39;20799;-77
2022/03/20 11:53:29;;;;;;;36.47;29.53;;;13.20;1.00;;;;;;2610153;54;20155;-76
2022/03/20 11:55:55;;;;;;;33.00;26.60;;;13.60;1.00;;;;;;2609672;39;20819;-77
2022/03/20 11:58:21;;;;;;;31.30;24.97;;;14.60;1.00;;;;;;2610507;47;20438;-77
2022/03/20 12:01:03;;;;;;;40.90;28.67;;;13.90;1.00;;;;;;2610673;39;20784;-76
2022/03/20 12:03:38;;;;;;;37.03;29.30;;;13.90;1.00;;;;;;2611935;54;20447;-79
2022/03/20 12:06:41;;;;;;;39.73;28.77;;;13.80;1.00;;;;;;2612580;54;20486;-78
2022/03/20 12:09:45;;;;;;;29.60;26.50;;;13.80;1.00;;;;;;2610944;46;20458;-78
2022/03/20 12:12:45;;;;;;;35.63;26.97;;;13.90;1.00;;;;;;2611253;54;20423;-78
2022/03/20 12:15:12;;;;;;;37.50;28.67;;;13.80;1.00;;;;;;2612333;54;20506;-77
2022/03/20 12:17:57;;;;;;;33.30;26.37;;;13.80;1.00;;;;;;2611906;54;20411;-79
2022/03/20 12:20:52;;;;;;;34.03;25.73;;;14.00;1.00;;;;;;2611734;47;20483;-78
2022/03/20 12:23:35;;;;;;;37.40;27.70;;;13.60;1.00;;;;;;2611289;47;20430;-78
2022/03/20 12:26:31;;;;;;;33.60;28.67;;;13.30;1.00;;;;;;2610546;46;20424;-78
2022/03/20 12:29:35;;;;;;;34.50;25.73;;;13.60;1.00;;;;;;2611062;54;20444;-79
2022/03/20 12:32:02;;;;;;;42.73;27.43;;;13.20;1.00;;;;;;2610673;47;20427;-78
2022/03/20 12:34:30;;;;;;;37.63;28.27;;;13.30;1.00;;;;;;2611134;54;20411;-78
2022/03/20 12:37:32;;;;;;;35.33;26.37;;;12.80;1.00;;;;;;2611431;54;20404;-78
2022/03/20 12:40:19;;;;;;;39.07;29.37;;;12.70;1.00;;;;;;2611761;47;20443;-77
2022/03/20 12:43:08;;;;;;;34.83;26.37;;;12.90;1.00;;;;;;2612326;47;20931;-77
2022/03/20 12:45:56;;;;;;;34.47;25.03;;;12.70;1.00;;;;;;2610941;46;20443;-78
2022/03/20 12:48:23;;;;;;;34.03;24.20;;;12.70;1.00;;;;;;2612031;46;20473;-77
2022/03/20 12:50:55;;;;;;;33.37;26.50;;;12.70;1.00;;;;;;2608970;47;20431;-77
2022/03/20 12:53:23;;;;;;;40.80;27.60;;;12.70;1.00;;;;;;2612009;47;20448;-78
2022/03/20 12:55:59;;;;;;;35.87;26.87;;;12.70;1.00;;;;;;2611518;46;20467;-78
2022/03/20 12:58:26;;;;;;;37.57;24.67;;;12.70;1.00;;;;;;2611299;54;20932;-78
2022/03/20 13:00:53;;;;;;;36.40;27.70;;;12.80;1.00;;;;;;2611233;54;20560;-77
2022/03/20 13:03:20;;;;;;;31.30;24.40;;;12.60;17.90;;;;;;2610637;47;20478;-79
2022/03/20 13:05:46;;;;;;;32.20;23.73;;;;;;;;;;2611569;54;20407;-78
2022/03/20 13:08:26;;;;;;;34.50;26.33;;;12.70;1.00;;;;;;2611083;48;21024;-77
2022/03/20 13:10:57;;;;;;;34.07;26.07;;;13.10;3.80;;;;;;2609590;54;20407;-77
2022/03/20 13:13:34;;;;;;;34.10;25.67;;;13.40;1.00;;;;;;2611233;54;20499;-78
2022/03/20 13:16:02;;;;;;;32.93;26.13;;;13.60;1.00;;;;;;2610693;46;20422;-77
2022/03/20 13:18:31;;;;;;;37.17;26.27;;;13.40;9.00;;;;;;2609310;54;21511;-78
2022/03/20 13:20:58;;;;;;;39.63;26.57;;;;;;;;;;2611333;54;20453;-77
2022/03/20 13:23:27;;;;;;;37.87;26.50;;;13.40;1.10;;;;;;2609850;46;20443;-78
2022/03/20 13:26:00;;;;;;;39.77;28.23;;;13.00;1.00;;;;;;2609315;47;20543;-78
2022/03/20 13:28:40;;;;;;;33.87;25.17;;;13.50;9.40;;;;;;2607038;47;20560;-77